Time;durP1;ratioP1;P1;durP2;ratioP2;P2;SDS_P1;SDS_P2;PMS_P1;PMS_P2;Temp;Humidity;BMP_temperature;BMP_pressure;BME280_temperature;BME280_humidity;BME280_pressure;Samples;Min_cycle;Max_cycle;Signal;HPM_P1;HPM_P2
2021/04/03 00:00:55;;;;;;;43.17;4.88;;;9.00;55.20;;;;;;4987972;28;20021;-64
2021/04/03 00:03:22;;;;;;;53.47;5.43;;;9.00;55.30;;;;;;4986673;28;20030;-63
2021/04/03 00:05:49;;;;;;;51.92;6.30;;;9.00;55.40;;;;;;4980650;28;20144;-64
2021/04/03 00:08:18;;;;;;;40.33;6.22;;;8.90;55.50;;;;;;5002474;28;20506;-63
2021/04/03 00:10:45;;;;;;;43.95;5.40;;;8.90;55.60;;;;;;4982204;28;20030;-63
2021/04/03 00:13:11;;;;;;;42.58;5.40;;;8.90;55.70;;;;;;4980563;28;20026;-64
2021/04/03 00:15:37;;;;;;;50.85;5.57;;;8.90;55.80;;;;;;4988791;28;20529;-63
2021/04/03 00:18:03;;;;;;;45.17;6.10;;;8.80;55.90;;;;;;4980451;28;20037;-64
2021/04/03 00:20:31;;;;;;;50.00;5.65;;;8.80;56.20;;;;;;4987801;28;20974;-64
2021/04/03 00:22:57;;;;;;;50.58;6.63;;;8.80;56.30;;;;;;4979954;28;20902;-64
2021/04/03 00:25:23;;;;;;;32.25;5.72;;;8.80;56.40;;;;;;4985126;28;20108;-64
2021/04/03 00:27:49;;;;;;;57.13;5.70;;;8.80;56.50;;;;;;4984557;28;20128;-64
2021/04/03 00:30:18;;;;;;;56.38;5.57;;;8.80;56.70;;;;;;4988656;28;20038;-63
2021/04/03 00:32:49;;;;;;;40.10;6.38;;;8.70;56.80;;;;;;4979839;28;20031;-63
2021/04/03 00:35:19;;;;;;;37.40;5.78;;;8.70;56.70;;;;;;4980945;28;20154;-63
2021/04/03 00:37:44;;;;;;;48.63;5.97;;;8.70;57.00;;;;;;4987189;28;20113;-64
2021/04/03 00:40:19;;;;;;;56.65;6.13;;;8.70;57.00;;;;;;4977799;28;20588;-63
2021/04/03 00:42:48;;;;;;;52.90;5.93;;;8.70;57.20;;;;;;4982359;28;20034;-64
2021/04/03 00:45:22;;;;;;;43.67;6.15;;;8.70;57.20;;;;;;4989381;28;20170;-64
2021/04/03 00:47:52;;;;;;;45.97;6.45;;;8.70;57.30;;;;;;4985562;28;20037;-63
2021/04/03 00:50:32;;;;;;;47.03;5.68;;;8.60;57.20;;;;;;4979239;28;20600;-63
2021/04/03 00:53:00;;;;;;;64.40;6.28;;;8.60;57.20;;;;;;4983929;28;20041;-63
2021/04/03 00:55:25;;;;;;;51.65;6.25;;;8.60;57.20;;;;;;4983867;28;20096;-64
2021/04/03 00:57:52;;;;;;;45.00;6.15;;;8.50;57.20;;;;;;4982910;28;20026;-63
2021/04/03 01:00:20;;;;;;;49.75;6.28;;;8.50;57.30;;;;;;4982145;28;20037;-64
2021/04/03 01:02:48;;;;;;;46.75;5.93;;;8.50;57.40;;;;;;4976682;28;20057;-64
2021/04/03 01:05:22;;;;;;;46.40;5.70;;;8.50;57.50;;;;;;4986106;28;20044;-64
2021/04/03 01:07:48;;;;;;;52.95;6.50;;;8.50;57.50;;;;;;4982212;28;20235;-64
2021/04/03 01:10:17;;;;;;;55.83;7.50;;;8.50;57.60;;;;;;4980182;28;20029;-63
2021/04/03 01:13:05;;;;;;;60.47;7.10;;;8.40;57.60;;;;;;4999006;28;20048;-63
2021/04/03 01:15:38;;;;;;;34.97;5.78;;;8.40;57.60;;;;;;4988706;28;20034;-63
2021/04/03 01:18:30;;;;;;;53.33;6.35;;;8.40;57.80;;;;;;4992924;28;20117;-64
2021/04/03 01:21:13;;;;;;;46.75;6.18;;;8.40;57.90;;;;;;4997576;28;20030;-64
2021/04/03 01:23:44;;;;;;;42.67;5.75;;;8.40;57.90;;;;;;4994797;28;20033;-64
2021/04/03 01:26:42;;;;;;;64.40;6.50;;;8.30;58.00;;;;;;4993423;28;20896;-64
2021/04/03 01:29:37;;;;;;;46.45;6.00;;;8.30;58.10;;;;;;4990559;28;20045;-63
2021/04/03 01:32:06;;;;;;;56.15;6.22;;;8.30;58.10;;;;;;4994618;28;20037;-63
2021/04/03 01:34:37;;;;;;;51.90;6.45;;;8.30;58.40;;;;;;4992662;28;20481;-64
2021/04/03 01:37:10;;;;;;;74.30;7.55;;;8.40;58.60;;;;;;4989847;28;20299;-64
2021/04/03 01:39:37;;;;;;;47.50;6.40;;;8.40;58.50;;;;;;4984798;28;20132;-64
2021/04/03 01:42:06;;;;;;;59.78;7.18;;;8.40;58.50;;;;;;4992047;28;20034;-63
2021/04/03 01:44:41;;;;;;;65.22;6.55;;;8.40;58.60;;;;;;4993244;28;20403;-64
2021/04/03 01:47:07;;;;;;;59.20;7.28;;;8.40;58.70;;;;;;4993229;28;20037;-64
2021/04/03 01:49:35;;;;;;;64.05;7.88;;;8.40;58.60;;;;;;4991852;28;20443;-63
2021/04/03 01:52:01;;;;;;;50.65;6.70;;;8.40;58.80;;;;;;5008614;23;20073;-63
2021/04/03 01:54:28;;;;;;;69.90;7.47;;;8.40;58.70;;;;;;4991497;28;20105;-63
2021/04/03 01:56:56;;;;;;;44.50;6.43;;;8.40;58.80;;;;;;4992388;28;20034;-63
2021/04/03 01:59:24;;;;;;;53.22;6.28;;;8.40;58.90;;;;;;4982904;28;20030;-63
2021/04/03 02:01:53;;;;;;;54.78;7.15;;;8.40;58.80;;;;;;4977129;28;20034;-63
2021/04/03 02:04:19;;;;;;;52.38;7.53;;;8.40;58.90;;;;;;4971860;28;20022;-63
2021/04/03 02:06:47;;;;;;;56.72;9.15;;;8.40;58.90;;;;;;4979381;28;20057;-63
2021/04/03 02:09:16;;;;;;;74.72;8.02;;;8.40;59.00;;;;;;4981546;28;20038;-63
2021/04/03 02:11:47;;;;;;;56.38;6.55;;;8.40;59.00;;;;;;4978072;28;20411;-62
2021/04/03 02:14:16;;;;;;;59.42;7.25;;;8.40;58.50;;;;;;4978519;28;23442;-63
2021/04/03 02:16:45;;;;;;;55.53;7.38;;;8.30;59.00;;;;;;4980203;28;20400;-63
2021/04/03 02:19:14;;;;;;;60.40;7.18;;;8.30;59.00;;;;;;4978393;28;20036;-63
2021/04/03 02:21:40;;;;;;;67.72;8.57;;;8.30;59.10;;;;;;4976638;28;20037;-63
2021/04/03 02:24:09;;;;;;;88.82;8.70;;;8.30;59.30;;;;;;4975964;28;20144;-63
2021/04/03 02:26:36;;;;;;;81.95;8.32;;;8.30;59.50;;;;;;4977877;28;20030;-63
2021/04/03 02:29:05;;;;;;;79.78;8.45;;;8.30;59.70;;;;;;4975882;28;20481;-63
2021/04/03 02:31:32;;;;;;;81.60;8.50;;;8.40;59.80;;;;;;4974632;28;20072;-63
2021/04/03 02:34:01;;;;;;;66.65;8.15;;;8.40;59.80;;;;;;4977575;28;20027;-63
2021/04/03 02:36:26;;;;;;;84.13;9.75;;;8.40;59.80;;;;;;4976583;28;20037;-63
2021/04/03 02:38:53;;;;;;;101.18;9.27;;;8.40;59.90;;;;;;4980761;28;20030;-63
2021/04/03 02:41:24;;;;;;;86.38;8.88;;;8.40;60.00;;;;;;4977589;28;20037;-63
2021/04/03 02:44:01;;;;;;;93.63;9.40;;;8.40;60.10;;;;;;4977606;28;20042;-63
2021/04/03 02:46:43;;;;;;;100.47;10.10;;;8.40;60.20;;;;;;4984588;28;20045;-62
2021/04/03 02:49:18;;;;;;;96.85;9.88;;;8.40;60.20;;;;;;4990334;28;20030;-63
2021/04/03 02:51:49;;;;;;;105.35;9.70;;;8.50;60.40;;;;;;4977147;28;20114;-63
2021/04/03 02:54:17;;;;;;;94.63;10.10;;;8.50;60.50;;;;;;4984060;28;20753;-64
2021/04/03 02:56:44;;;;;;;84.90;8.75;;;8.50;60.60;;;;;;4975214;28;20034;-63
2021/04/03 02:59:23;;;;;;;92.60;9.75;;;8.50;60.60;;;;;;4976610;28;20121;-63
2021/04/03 03:01:51;;;;;;;108.57;9.82;;;8.50;60.60;;;;;;4978975;28;20105;-64
2021/04/03 03:04:20;;;;;;;89.30;9.05;;;8.50;60.80;;;;;;4968503;28;20026;-63
2021/04/03 03:06:47;;;;;;;101.50;10.52;;;8.50;60.80;;;;;;4973323;28;20026;-63
2021/04/03 03:09:16;;;;;;;113.72;9.27;;;8.50;60.90;;;;;;4976571;28;20627;-63
2021/04/03 03:11:46;;;;;;;91.47;9.82;;;8.50;60.90;;;;;;4972199;28;20022;-63
2021/04/03 03:14:16;;;;;;;84.78;10.10;;;8.50;60.90;;;;;;4987569;28;20153;-63
2021/04/03 03:16:44;;;;;;;98.63;10.27;;;8.50;61.00;;;;;;4981345;28;20225;-63
2021/04/03 03:19:11;;;;;;;108.38;10.73;;;8.50;61.00;;;;;;4978581;28;20511;-63
2021/04/03 03:21:41;;;;;;;89.65;9.85;;;8.50;61.10;;;;;;4984445;28;20061;-63
2021/04/03 03:24:10;;;;;;;98.28;9.35;;;8.50;61.20;;;;;;4970255;28;20034;-63
2021/04/03 03:26:38;;;;;;;99.43;10.30;;;8.50;61.20;;;;;;4974336;28;20380;-63
2021/04/03 03:29:07;;;;;;;107.82;9.82;;;8.50;61.20;;;;;;4981995;28;20029;-63
2021/04/03 03:31:36;;;;;;;109.28;11.10;;;8.50;61.30;;;;;;4981255;28;20031;-63
2021/04/03 03:34:02;;;;;;;107.15;11.23;;;8.50;61.20;;;;;;4976441;28;20110;-64
2021/04/03 03:36:29;;;;;;;94.88;9.98;;;8.50;61.30;;;;;;4978435;28;20113;-62
2021/04/03 03:38:56;;;;;;;131.30;10.52;;;8.50;61.30;;;;;;4984555;28;20392;-64
2021/04/03 03:41:24;;;;;;;101.65;10.18;;;8.50;61.30;;;;;;4980312;28;20416;-63
2021/04/03 03:43:50;;;;;;;91.40;9.40;;;8.50;61.30;;;;;;4982368;28;20036;-63
2021/04/03 03:46:16;;;;;;;118.50;10.80;;;8.40;61.30;;;;;;4983105;28;20035;-64
2021/04/03 03:48:41;;;;;;;103.07;9.70;;;8.40;61.30;;;;;;4984231;28;20073;-63
2021/04/03 03:51:07;;;;;;;100.88;9.52;;;8.40;61.40;;;;;;4981791;28;20030;-64
2021/04/03 03:53:32;;;;;;;106.65;9.80;;;8.40;61.30;;;;;;4976530;28;20023;-63
2021/04/03 03:55:59;;;;;;;102.55;9.00;;;8.40;61.30;;;;;;4982491;28;20026;-64
2021/04/03 03:58:24;;;;;;;98.35;10.27;;;8.30;61.20;;;;;;4980069;28;20015;-62
2021/04/03 04:00:53;;;;;;;107.43;10.27;;;8.30;61.30;;;;;;4981342;28;20041;-62
2021/04/03 04:03:18;;;;;;;112.68;9.77;;;8.30;61.40;;;;;;4980949;28;20090;-62
2021/04/03 04:05:46;;;;;;;107.32;9.35;;;8.30;61.40;;;;;;4978990;28;20022;-62
2021/04/03 04:08:12;;;;;;;103.60;9.20;;;8.30;61.40;;;;;;4977506;28;20038;-62
2021/04/03 04:10:38;;;;;;;109.75;9.35;;;8.30;61.40;;;;;;4979838;28;20042;-63
2021/04/03 04:13:06;;;;;;;117.18;10.55;;;8.30;61.50;;;;;;4979920;28;20171;-63
2021/04/03 04:15:34;;;;;;;106.65;9.68;;;8.30;61.60;;;;;;4976067;28;20165;-62
2021/04/03 04:17:59;;;;;;;87.07;10.18;;;8.30;61.60;;;;;;4979709;28;20030;-63
2021/04/03 04:20:25;;;;;;;97.32;9.15;;;8.30;61.60;;;;;;4998249;28;20455;-63
2021/04/03 04:22:50;;;;;;;96.68;9.43;;;8.30;61.40;;;;;;4981489;28;20032;-63
2021/04/03 04:25:16;;;;;;;109.78;10.88;;;8.20;61.40;;;;;;4975071;28;20113;-63
2021/04/03 04:27:41;;;;;;;100.00;9.77;;;8.20;61.30;;;;;;4984295;28;20060;-63
2021/04/03 04:30:10;;;;;;;99.50;9.52;;;8.20;61.30;;;;;;4977983;28;20431;-63
2021/04/03 04:32:37;;;;;;;89.90;8.95;;;8.10;61.20;;;;;;4978772;28;20520;-63
2021/04/03 04:35:04;;;;;;;80.22;8.85;;;8.10;62.00;;;;;;4971622;28;20105;-63
2021/04/03 04:37:29;;;;;;;87.78;8.52;;;8.10;61.40;;;;;;4979886;28;20237;-62
2021/04/03 04:39:57;;;;;;;100.72;8.88;;;8.10;61.30;;;;;;4980886;28;20084;-62
2021/04/03 04:42:23;;;;;;;92.57;8.88;;;8.00;61.20;;;;;;4979660;28;20026;-61
2021/04/03 04:44:49;;;;;;;101.25;9.98;;;8.00;61.20;;;;;;4978467;28;20109;-61
2021/04/03 04:47:19;;;;;;;90.70;8.85;;;8.00;61.40;;;;;;4981333;28;20034;-62
2021/04/03 04:49:47;;;;;;;93.80;10.35;;;8.00;61.40;;;;;;4976995;28;20038;-62
2021/04/03 04:52:12;;;;;;;115.72;10.23;;;8.00;61.50;;;;;;4976777;28;20053;-61
2021/04/03 04:54:38;;;;;;;83.78;9.48;;;8.00;61.50;;;;;;4976941;28;20030;-62
2021/04/03 04:57:05;;;;;;;83.22;8.75;;;7.90;61.50;;;;;;4972123;28;20033;-63
2021/04/03 04:59:33;;;;;;;78.45;9.02;;;7.90;61.50;;;;;;4973514;28;20076;-63
2021/04/03 05:01:58;;;;;;;109.65;9.55;;;7.90;61.60;;;;;;4970939;28;20049;-62
2021/04/03 05:04:24;;;;;;;92.72;10.45;;;7.90;61.60;;;;;;4979652;28;20741;-62
2021/04/03 05:06:50;;;;;;;106.38;11.05;;;7.90;61.80;;;;;;4978526;28;20956;-63
2021/04/03 05:09:15;;;;;;;87.68;11.98;;;7.90;61.80;;;;;;4983165;28;20034;-62
2021/04/03 05:11:43;;;;;;;96.35;12.68;;;7.90;61.80;;;;;;4980569;28;20038;-63
2021/04/03 05:14:09;;;;;;;89.20;12.75;;;7.90;61.80;;;;;;4978199;28;20022;-62
2021/04/03 05:16:34;;;;;;;95.40;13.50;;;7.90;62.40;;;;;;4980107;28;20029;-62
2021/04/03 05:19:00;;;;;;;95.43;13.77;;;7.90;61.70;;;;;;4975843;28;20408;-62
2021/04/03 05:21:25;;;;;;;112.20;13.07;;;7.90;61.80;;;;;;4979747;28;20058;-63
2021/04/03 05:23:51;;;;;;;95.75;13.27;;;7.90;61.70;;;;;;4980432;28;20038;-62
2021/04/03 05:26:17;;;;;;;89.03;11.88;;;7.90;61.90;;;;;;4972499;28;20669;-62
2021/04/03 05:28:44;;;;;;;105.57;12.25;;;8.00;61.90;;;;;;4977638;28;20440;-62
2021/04/03 05:31:10;;;;;;;98.10;12.23;;;8.00;61.90;;;;;;4974608;28;20037;-62
2021/04/03 05:33:36;;;;;;;94.43;11.65;;;8.00;62.00;;;;;;4982537;28;20027;-63
2021/04/03 05:36:01;;;;;;;94.28;11.23;;;8.10;62.20;;;;;;4970864;28;20030;-62
2021/04/03 05:38:27;;;;;;;93.70;12.55;;;8.10;62.30;;;;;;4984733;28;20044;-63
2021/04/03 05:40:53;;;;;;;94.78;10.23;;;8.20;62.50;;;;;;4976629;28;20034;-63
2021/04/03 05:43:19;;;;;;;99.40;11.63;;;8.30;62.40;;;;;;4975872;28;20092;-63
2021/04/03 05:45:49;;;;;;;113.80;13.15;;;8.40;62.50;;;;;;4981945;28;20030;-63
2021/04/03 05:48:14;;;;;;;109.13;11.93;;;8.40;62.40;;;;;;4990033;28;20480;-63
2021/04/03 05:50:41;;;;;;;93.95;11.25;;;8.50;62.30;;;;;;4977136;28;20097;-63
2021/04/03 05:53:09;;;;;;;97.90;11.50;;;8.50;62.20;;;;;;4981137;28;20034;-63
2021/04/03 05:55:35;;;;;;;90.03;10.95;;;8.60;61.40;;;;;;4975884;28;20040;-63
2021/04/03 05:58:00;;;;;;;105.88;11.70;;;8.60;62.10;;;;;;4977178;28;20404;-63
2021/04/03 06:00:26;;;;;;;108.60;11.55;;;8.70;62.10;;;;;;4977736;28;20054;-63
2021/04/03 06:02:54;;;;;;;99.75;11.05;;;8.70;62.20;;;;;;4976215;28;20062;-62
2021/04/03 06:05:20;;;;;;;110.70;10.73;;;8.80;62.40;;;;;;4968070;28;20216;-64
2021/04/03 06:07:48;;;;;;;76.82;9.52;;;8.90;62.40;;;;;;4974583;28;20109;-64
2021/04/03 06:10:14;;;;;;;91.78;11.23;;;8.90;62.50;;;;;;4978941;28;20038;-62
2021/04/03 06:12:42;;;;;;;85.70;10.80;;;8.90;62.40;;;;;;4980424;28;20408;-62
2021/04/03 06:15:14;;;;;;;78.82;9.95;;;9.00;62.40;;;;;;4980700;28;20038;-62
2021/04/03 06:17:42;;;;;;;92.55;11.02;;;9.10;62.30;;;;;;4973310;28;20022;-62
2021/04/03 06:20:08;;;;;;;71.32;9.30;;;9.10;62.10;;;;;;4971703;28;20037;-62
2021/04/03 06:22:47;;;;;;;82.53;10.48;;;9.10;62.10;;;;;;4977033;28;20038;-62
2021/04/03 06:25:15;;;;;;;76.65;10.07;;;9.10;62.10;;;;;;4969578;28;20061;-62
2021/04/03 06:27:41;;;;;;;97.80;11.00;;;9.20;62.30;;;;;;4969802;28;20372;-62
2021/04/03 06:30:15;;;;;;;82.80;9.98;;;9.20;62.40;;;;;;4975792;28;20042;-62
2021/04/03 06:32:44;;;;;;;88.82;10.23;;;9.30;62.70;;;;;;4976680;28;20030;-62
2021/04/03 06:35:10;;;;;;;78.35;9.07;;;9.40;62.70;;;;;;4983056;28;20031;-62
2021/04/03 06:37:37;;;;;;;113.28;10.57;;;9.50;62.80;;;;;;4971442;28;20031;-63
2021/04/03 06:40:07;;;;;;;88.40;10.80;;;9.60;63.00;;;;;;4973999;28;20031;-63
2021/04/03 06:42:38;;;;;;;87.38;11.65;;;9.70;63.00;;;;;;4971842;28;20112;-62
2021/04/03 06:45:26;;;;;;;96.18;11.25;;;9.90;63.20;;;;;;4973674;28;20041;-62
2021/04/03 06:47:56;;;;;;;91.57;11.32;;;10.10;62.90;;;;;;4980238;28;20118;-62
2021/04/03 06:50:24;;;;;;;87.85;11.20;;;10.30;62.60;;;;;;4972514;28;20027;-62
2021/04/03 06:52:50;;;;;;;70.57;10.18;;;10.40;62.50;;;;;;4976410;28;20049;-62
2021/04/03 06:55:19;;;;;;;86.38;10.02;;;10.50;62.50;;;;;;4973116;28;20065;-62
2021/04/03 06:57:46;;;;;;;84.85;10.18;;;10.50;62.50;;;;;;4972849;28;20054;-62
2021/04/03 07:00:14;;;;;;;90.28;11.15;;;10.60;62.60;;;;;;4971186;28;20472;-63
2021/04/03 07:02:56;;;;;;;76.82;9.38;;;10.60;63.40;;;;;;4966548;28;20454;-62
2021/04/03 07:05:23;;;;;;;77.63;9.55;;;10.70;62.80;;;;;;4965673;28;20039;-62
2021/04/03 07:07:49;;;;;;;79.15;11.00;;;10.80;62.80;;;;;;4980497;28;20411;-63
2021/04/03 07:10:17;;;;;;;72.15;8.70;;;10.80;62.90;;;;;;4975864;28;20022;-62
2021/04/03 07:12:44;;;;;;;70.75;9.90;;;10.90;62.80;;;;;;4969341;28;20037;-62
2021/04/03 07:15:13;;;;;;;77.18;9.65;;;11.00;62.90;;;;;;4966751;28;20093;-63
2021/04/03 07:17:41;;;;;;;75.75;9.98;;;11.10;63.00;;;;;;4973718;28;20018;-63
2021/04/03 07:20:16;;;;;;;89.13;10.02;;;11.10;63.00;;;;;;4975353;28;20046;-62
2021/04/03 07:22:49;;;;;;;63.83;9.10;;;11.20;63.00;;;;;;4966234;28;20723;-63
2021/04/03 07:25:16;;;;;;;69.80;9.32;;;11.30;63.10;;;;;;4970911;28;20078;-63
2021/04/03 07:27:44;;;;;;;61.35;8.75;;;11.40;63.20;;;;;;4967943;28;20042;-62
2021/04/03 07:30:33;;;;;;;64.65;8.30;;;11.50;63.40;;;;;;4973612;28;20033;-62
2021/04/03 07:33:05;;;;;;;65.60;8.60;;;11.60;63.70;;;;;;4963194;28;20026;-63
2021/04/03 07:35:37;;;;;;;63.15;8.32;;;11.70;63.40;;;;;;4972208;28;20019;-62
2021/04/03 07:38:11;;;;;;;61.50;8.63;;;11.80;63.40;;;;;;4963524;28;20165;-62
2021/04/03 07:40:39;;;;;;;57.92;8.25;;;12.00;63.40;;;;;;4967940;28;20027;-63
2021/04/03 07:43:37;;;;;;;71.53;9.50;;;12.00;63.30;;;;;;4972406;28;20982;-63
2021/04/03 07:46:34;;;;;;;51.17;7.65;;;12.10;63.30;;;;;;4972204;28;20092;-63
2021/04/03 07:49:02;;;;;;;47.33;8.07;;;12.30;63.50;;;;;;4963074;28;20073;-63
2021/04/03 07:51:30;;;;;;;46.13;7.03;;;12.40;63.40;;;;;;4972525;28;20977;-63
2021/04/03 07:53:57;;;;;;;39.78;6.38;;;12.60;63.60;;;;;;4967170;28;20018;-64
2021/04/03 07:56:25;;;;;;;40.88;7.45;;;;;;;;;;4965579;28;20030;-63
2021/04/03 07:58:54;;;;;;;39.92;6.32;;;;;;;;;;4969177;28;20656;-63
2021/04/03 08:01:23;;;;;;;30.98;6.03;;;12.70;63.40;;;;;;4968642;28;20476;-63
2021/04/03 08:03:57;;;;;;;34.63;6.05;;;14.30;65.60;;;;;;4974838;28;20066;-63
2021/04/03 08:06:33;;;;;;;25.55;6.80;;;;;;;;;;4962803;28;21719;-64
2021/04/03 08:09:02;;;;;;;19.70;4.78;;;16.30;62.40;;;;;;4962382;28;20030;-64
2021/04/03 08:11:29;;;;;;;17.15;4.30;;;20.50;51.10;;;;;;4974274;28;20026;-64
2021/04/03 08:13:58;;;;;;;29.48;5.03;;;21.80;47.40;;;;;;4961857;28;20027;-64
2021/04/03 08:16:27;;;;;;;24.95;4.53;;;22.80;44.60;;;;;;4964693;28;20034;-64
2021/04/03 08:18:55;;;;;;;19.23;4.32;;;24.00;42.30;;;;;;4973768;28;20165;-64
2021/04/03 08:21:21;;;;;;;21.83;4.35;;;;;;;;;;4976335;28;20053;-64
2021/04/03 08:23:51;;;;;;;19.67;3.78;;;;;;;;;;4968162;28;20045;-64
2021/04/03 08:26:18;;;;;;;19.80;4.53;;;;;;;;;;4973958;28;20076;-64
2021/04/03 08:28:45;;;;;;;17.90;3.78;;;;;;;;;;4971760;28;20395;-64
2021/04/03 08:31:16;;;;;;;17.08;3.78;;;;;;;;;;4975610;28;20037;-64
2021/04/03 08:33:43;;;;;;;12.40;3.30;;;;;;;;;;4959743;28;20081;-64
2021/04/03 08:36:13;;;;;;;19.50;4.40;;;25.20;39.70;;;;;;4967903;28;20826;-64
2021/04/03 08:38:40;;;;;;;12.30;4.10;;;29.80;27.10;;;;;;4965523;28;20388;-64
2021/04/03 08:41:06;;;;;;;12.82;3.42;;;30.00;26.50;;;;;;4967114;28;20026;-64
2021/04/03 08:43:34;;;;;;;10.80;3.00;;;30.30;26.10;;;;;;4970792;28;20037;-64
2021/04/03 08:46:09;;;;;;;11.20;2.75;;;;;;;;;;4970569;28;20018;-62
2021/04/03 08:48:38;;;;;;;12.95;3.13;;;30.60;25.40;;;;;;4965583;28;20113;-64
2021/04/03 08:51:05;;;;;;;15.20;3.30;;;31.30;24.00;;;;;;4962152;28;20125;-64
2021/04/03 08:53:43;;;;;;;12.57;3.10;;;31.50;23.00;;;;;;4970849;28;20022;-63
2021/04/03 08:56:10;;;;;;;9.80;3.03;;;31.60;22.60;;;;;;4979945;28;20027;-63
2021/04/03 08:58:40;;;;;;;13.77;3.17;;;31.50;22.90;;;;;;4975860;28;20065;-63
2021/04/03 09:01:05;;;;;;;11.65;2.92;;;31.30;22.90;;;;;;4977875;28;20030;-63
2021/04/03 09:03:34;;;;;;;15.65;3.35;;;31.60;22.60;;;;;;4977406;28;20439;-63
2021/04/03 09:06:00;;;;;;;10.45;2.50;;;31.90;22.40;;;;;;4966950;28;20035;-63
2021/04/03 09:08:26;;;;;;;11.68;2.83;;;;;;;;;;4968489;28;20027;-63
2021/04/03 09:10:59;;;;;;;11.95;3.03;;;32.00;21.60;;;;;;4961525;28;20116;-63
2021/04/03 09:13:35;;;;;;;12.13;3.45;;;;;;;;;;4971160;28;20026;-64
2021/04/03 09:16:10;;;;;;;12.07;3.08;;;;;;;;;;4986541;28;20087;-64
2021/04/03 09:18:38;;;;;;;12.60;3.20;;;;;;;;;;4967505;28;20056;-64
2021/04/03 09:21:05;;;;;;;18.58;2.92;;;;;;;;;;4969848;28;20330;-64
2021/04/03 09:23:31;;;;;;;10.60;3.25;;;;;;;;;;4968541;28;20027;-64
2021/04/03 09:26:01;;;;;;;10.77;2.95;;;;;;;;;;4963937;28;20038;-63
2021/04/03 09:28:36;;;;;;;12.75;3.05;;;;;;;;;;4970760;28;20435;-63
2021/04/03 09:31:02;;;;;;;14.25;3.15;;;;;;;;;;4967984;28;20034;-63
2021/04/03 09:33:29;;;;;;;10.52;2.75;;;;;;;;;;4974322;28;20034;-63
2021/04/03 09:36:09;;;;;;;10.18;2.97;;;;;;;;;;4968903;28;20030;-63
2021/04/03 09:38:37;;;;;;;10.35;2.83;;;32.10;21.10;;;;;;4980527;28;20140;-63
2021/04/03 09:41:03;;;;;;;16.05;3.10;;;;;;;;;;4987982;28;20118;-63
2021/04/03 09:43:39;;;;;;;10.88;2.97;;;;;;;;;;4981166;28;20052;-63
2021/04/03 09:46:05;;;;;;;12.70;2.88;;;;;;;;;;4964082;28;20035;-64
2021/04/03 09:48:31;;;;;;;9.75;2.92;;;;;;;;;;4965779;28;20544;-63
2021/04/03 09:50:59;;;;;;;11.50;3.30;;;;;;;;;;4969472;28;20027;-64
2021/04/03 09:53:28;;;;;;;13.98;3.35;;;34.30;18.60;;;;;;4967657;28;20035;-64
2021/04/03 09:55:53;;;;;;;10.80;3.63;;;34.70;18.30;;;;;;4970289;28;20030;-64
2021/04/03 09:58:22;;;;;;;16.70;5.45;;;;;;;;;;4970325;28;20475;-64
2021/04/03 10:00:48;;;;;;;17.67;6.60;;;;;;;;;;4966233;28;20117;-64
2021/04/03 10:03:17;;;;;;;27.58;11.85;;;;;;;;;;4966174;28;20046;-63
2021/04/03 10:05:43;;;;;;;26.55;12.05;;;;;;;;;;4960888;28;20024;-63
2021/04/03 10:08:09;;;;;;;28.60;12.30;;;;;;;;;;4973942;28;20169;-64
2021/04/03 10:10:35;;;;;;;29.77;14.40;;;;;;;;;;4963659;28;20653;-63
2021/04/03 10:13:01;;;;;;;17.13;8.23;;;;;;;;;;4960407;28;20053;-63
2021/04/03 10:15:27;;;;;;;17.60;7.60;;;;;;;;;;4963646;28;20049;-62
2021/04/03 10:17:53;;;;;;;19.77;7.70;;;;;;;;;;4964768;28;20424;-63
2021/04/03 10:20:19;;;;;;;21.77;8.20;;;;;;;;;;4960715;28;20129;-63
2021/04/03 10:22:45;;;;;;;16.08;6.90;;;;;;;;;;4957942;28;20027;-63
2021/04/03 10:25:12;;;;;;;16.83;7.22;;;;;;;;;;4960118;28;20431;-63
2021/04/03 10:27:38;;;;;;;15.70;5.90;;;;;;;;;;4957227;28;20041;-63
2021/04/03 10:30:05;;;;;;;14.23;5.60;;;34.60;17.90;;;;;;4951720;28;20034;-63
2021/04/03 10:32:31;;;;;;;14.85;5.82;;;;;;;;;;4962124;28;20068;-63
2021/04/03 10:35:00;;;;;;;12.55;5.80;;;;;;;;;;4955030;28;20124;-63
2021/04/03 10:37:26;;;;;;;15.45;7.07;;;;;;;;;;4958294;28;20498;-63
2021/04/03 10:39:51;;;;;;;15.65;6.53;;;34.70;16.30;;;;;;4964713;28;20034;-63
2021/04/03 10:42:19;;;;;;;16.77;7.35;;;34.70;16.10;;;;;;4964143;28;20448;-63
2021/04/03 10:44:45;;;;;;;16.25;7.88;;;34.40;16.20;;;;;;4963810;28;20037;-63
2021/04/03 10:47:10;;;;;;;19.02;8.27;;;34.00;16.60;;;;;;4962723;28;20480;-63
2021/04/03 10:49:36;;;;;;;18.13;7.60;;;;;;;;;;4967512;28;20030;-63
2021/04/03 10:52:02;;;;;;;19.42;7.70;;;;;;;;;;4965193;28;21056;-63
2021/04/03 10:54:28;;;;;;;17.85;8.07;;;33.50;16.60;;;;;;4954813;28;20034;-63
2021/04/03 10:56:53;;;;;;;20.35;8.35;;;32.00;18.20;;;;;;4960732;28;20034;-63
2021/04/03 10:59:24;;;;;;;20.08;8.07;;;31.80;18.30;;;;;;4959347;28;20395;-62
2021/04/03 11:01:52;;;;;;;19.38;7.90;;;;;;;;;;4957890;28;20472;-63
2021/04/03 11:04:18;;;;;;;21.40;8.15;;;;;;;;;;4968394;28;20022;-63
2021/04/03 11:06:44;;;;;;;20.85;7.90;;;31.80;18.60;;;;;;4964263;28;20030;-63
2021/04/03 11:09:09;;;;;;;23.80;8.52;;;;;;;;;;4963740;28;20438;-62
2021/04/03 11:11:35;;;;;;;19.95;9.38;;;31.40;18.90;;;;;;4960727;28;20034;-63
2021/04/03 11:14:01;;;;;;;23.15;9.68;;;;;;;;;;4960387;28;20034;-62
2021/04/03 11:16:27;;;;;;;26.70;10.48;;;;;;;;;;4964533;28;20038;-62
2021/04/03 11:18:54;;;;;;;24.13;11.18;;;;;;;;;;4964121;28;20623;-62
2021/04/03 11:21:20;;;;;;;31.55;12.88;;;;;;;;;;4964301;28;20531;-63
2021/04/03 11:23:46;;;;;;;39.72;15.38;;;;;;;;;;4960982;28;20101;-63
2021/04/03 11:26:12;;;;;;;34.10;15.65;;;;;;;;;;4961220;28;20509;-62
2021/04/03 11:28:38;;;;;;;39.83;16.85;;;;;;;;;;4972402;28;20041;-63
2021/04/03 11:31:04;;;;;;;35.63;14.38;;;31.10;19.20;;;;;;4970753;28;20037;-63
2021/04/03 11:33:29;;;;;;;25.02;12.10;;;27.50;21.50;;;;;;4969802;28;20093;-63
2021/04/03 11:35:55;;;;;;;25.45;10.32;;;26.90;22.40;;;;;;4971639;28;20029;-63
2021/04/03 11:38:20;;;;;;;17.90;6.85;;;27.00;22.60;;;;;;4964237;28;20203;-63
2021/04/03 11:40:46;;;;;;;21.75;7.80;;;27.30;21.90;;;;;;4969254;28;20039;-64
2021/04/03 11:43:12;;;;;;;26.60;10.80;;;27.50;22.40;;;;;;4967474;28;20030;-64
2021/04/03 11:45:40;;;;;;;26.85;9.73;;;27.70;22.40;;;;;;4969541;28;20034;-64
2021/04/03 11:48:09;;;;;;;32.72;10.25;;;27.70;22.20;;;;;;4971606;28;20039;-64
2021/04/03 11:50:35;;;;;;;22.73;9.90;;;27.30;22.30;;;;;;4963580;28;20067;-64
2021/04/03 11:53:00;;;;;;;17.50;7.35;;;26.80;22.70;;;;;;4969377;28;20819;-63
2021/04/03 11:55:26;;;;;;;20.45;7.50;;;26.20;23.20;;;;;;4960331;28;20034;-67
2021/04/03 11:57:55;;;;;;;20.02;7.78;;;;;;;;;;4968808;28;20173;-65
2021/04/03 12:00:22;;;;;;;23.73;8.77;;;;;;;;;;4965501;28;20165;-63
2021/04/03 12:02:48;;;;;;;27.15;10.25;;;;;;;;;;4966978;28;20027;-62
2021/04/03 12:05:17;;;;;;;28.83;11.40;;;25.80;23.20;;;;;;4975669;28;20104;-65
2021/04/03 12:07:43;;;;;;;29.48;12.93;;;24.60;25.50;;;;;;4967569;28;20825;-65
2021/04/03 12:10:12;;;;;;;30.42;13.25;;;24.40;26.30;;;;;;4972199;28;20121;-66
2021/04/03 12:12:41;;;;;;;30.00;12.07;;;24.20;26.50;;;;;;4973238;28;20038;-66
2021/04/03 12:15:08;;;;;;;37.22;12.52;;;24.00;26.20;;;;;;4972435;28;20334;-66
2021/04/03 12:17:35;;;;;;;30.02;11.27;;;23.80;26.60;;;;;;4964958;28;20117;-66
2021/04/03 12:20:01;;;;;;;24.67;9.48;;;23.50;27.00;;;;;;4974423;28;20034;-66
2021/04/03 12:22:27;;;;;;;30.58;11.02;;;23.40;27.40;;;;;;4975453;28;20092;-66
2021/04/03 12:24:52;;;;;;;38.13;13.00;;;23.20;27.50;;;;;;4973062;28;20026;-66
2021/04/03 12:27:18;;;;;;;38.70;13.77;;;23.00;27.80;;;;;;4973374;28;20472;-66
2021/04/03 12:29:43;;;;;;;35.00;12.70;;;22.80;28.20;;;;;;4975421;28;20036;-66
2021/04/03 12:32:09;;;;;;;31.10;12.35;;;22.60;28.50;;;;;;4965403;28;20038;-66
2021/04/03 12:34:35;;;;;;;40.40;12.23;;;22.20;28.70;;;;;;4967230;28;20049;-65
2021/04/03 12:37:00;;;;;;;32.38;11.52;;;21.80;28.90;;;;;;4966201;28;20034;-65
2021/04/03 12:39:26;;;;;;;29.23;10.23;;;21.70;29.70;;;;;;4979016;28;20034;-66
2021/04/03 12:41:51;;;;;;;29.92;9.43;;;21.80;30.40;;;;;;4974574;28;20072;-66
2021/04/03 12:44:17;;;;;;;31.05;9.80;;;22.00;30.00;;;;;;4968147;28;20038;-66
2021/04/03 12:46:42;;;;;;;28.40;10.30;;;22.20;29.90;;;;;;4959307;28;20038;-66
2021/04/03 12:49:08;;;;;;;24.20;9.93;;;22.30;30.00;;;;;;4960596;28;20625;-66
2021/04/03 12:51:34;;;;;;;32.83;11.20;;;22.50;29.80;;;;;;4964826;28;20022;-65
2021/04/03 12:54:00;;;;;;;30.73;11.00;;;22.40;29.40;;;;;;4961281;28;21055;-66
2021/04/03 12:56:26;;;;;;;31.77;12.55;;;22.20;29.20;;;;;;4983563;28;20030;-66
2021/04/03 12:58:51;;;;;;;30.63;10.70;;;21.90;29.30;;;;;;4983897;28;20404;-66
2021/04/03 13:01:17;;;;;;;28.27;10.30;;;21.70;29.30;;;;;;4972757;28;20676;-65